Time;durP1;ratioP1;P1;durP2;ratioP2;P2;SDS_P1;SDS_P2;PMS_P1;PMS_P2;Temp;Humidity;BMP_temperature;BMP_pressure;BME280_temperature;BME280_humidity;BME280_pressure;Samples;Min_cycle;Max_cycle;Signal;HPM_P1;HPM_P2
2023/06/19 00:01:19;;;;;;;20.80;10.02;;;20.40;99.90;;;;;;4999294;28;20023;-72
2023/06/19 00:03:45;;;;;;;14.35;9.13;;;20.40;99.90;;;;;;5001195;28;20022;-71
2023/06/19 00:06:12;;;;;;;12.60;8.38;;;20.40;99.90;;;;;;5001042;28;20396;-71
2023/06/19 00:08:41;;;;;;;15.90;9.00;;;20.40;99.90;;;;;;4998242;28;20018;-71
2023/06/19 00:11:07;;;;;;;14.38;9.60;;;20.40;99.90;;;;;;4982001;28;20037;-71
2023/06/19 00:13:33;;;;;;;13.90;8.90;;;20.30;99.90;;;;;;5001443;28;20018;-71
2023/06/19 00:16:00;;;;;;;13.60;9.23;;;20.40;99.90;;;;;;5003474;28;20023;-71
2023/06/19 00:18:26;;;;;;;11.00;9.23;;;20.50;99.90;;;;;;4998972;28;20022;-71
2023/06/19 00:20:54;;;;;;;13.88;9.32;;;20.40;99.90;;;;;;4999113;28;20517;-71
2023/06/19 00:23:19;;;;;;;16.30;9.38;;;20.40;99.90;;;;;;4998819;28;20090;-71
2023/06/19 00:25:45;;;;;;;12.75;9.18;;;20.40;99.90;;;;;;4998629;28;20525;-71
2023/06/19 00:28:13;;;;;;;14.23;10.57;;;20.40;99.90;;;;;;4998681;28;20022;-71
2023/06/19 00:30:39;;;;;;;15.27;10.20;;;20.30;99.90;;;;;;4981309;28;20166;-71
2023/06/19 00:33:05;;;;;;;13.93;9.82;;;20.40;99.90;;;;;;4981089;28;20026;-71
2023/06/19 00:35:31;;;;;;;13.48;10.40;;;20.30;99.90;;;;;;4981970;28;20537;-71
2023/06/19 00:38:00;;;;;;;19.35;11.10;;;20.30;99.90;;;;;;4998500;28;20030;-70
2023/06/19 00:40:34;;;;;;;20.95;9.63;;;20.30;99.90;;;;;;4998181;28;20030;-71
2023/06/19 00:43:00;;;;;;;15.73;11.05;;;20.30;99.90;;;;;;4980973;28;20026;-72
2023/06/19 00:45:26;;;;;;;16.65;9.15;;;20.20;99.90;;;;;;4998712;28;20077;-73
2023/06/19 00:47:54;;;;;;;14.40;8.93;;;20.30;99.90;;;;;;4998290;28;20025;-73
2023/06/19 00:50:23;;;;;;;15.85;10.23;;;20.20;99.90;;;;;;4998617;28;20097;-73
2023/06/19 00:52:49;;;;;;;14.48;9.63;;;20.20;99.90;;;;;;4998075;28;20026;-73
2023/06/19 00:55:16;;;;;;;12.35;9.52;;;20.20;99.90;;;;;;4980595;28;20029;-72
2023/06/19 00:57:42;;;;;;;18.25;9.00;;;20.20;99.90;;;;;;4998195;28;20085;-73
2023/06/19 01:00:11;;;;;;;15.02;8.60;;;20.10;99.90;;;;;;4998397;28;20085;-72
2023/06/19 01:02:38;;;;;;;16.00;9.13;;;20.10;99.90;;;;;;4997815;28;20145;-72
2023/06/19 01:05:03;;;;;;;15.63;9.10;;;20.10;99.90;;;;;;4999190;28;20035;-72
2023/06/19 01:07:52;;;;;;;18.30;9.10;;;20.00;99.90;;;;;;4996124;28;20056;-72
2023/06/19 01:10:58;;;;;;;19.00;9.05;;;20.00;99.90;;;;;;4985041;28;20041;-73
2023/06/19 01:13:47;;;;;;;12.80;8.60;;;19.90;99.90;;;;;;4921027;29;20672;-72
2023/06/19 01:16:14;;;;;;;14.88;9.48;;;19.90;99.90;;;;;;4919180;29;20032;-72
2023/06/19 01:18:40;;;;;;;15.88;9.50;;;19.90;99.90;;;;;;4962390;28;20368;-72
2023/06/19 01:21:13;;;;;;;15.75;9.65;;;19.90;99.90;;;;;;4998034;28;20032;-72
2023/06/19 01:23:40;;;;;;;14.63;9.75;;;19.80;99.90;;;;;;4997429;28;20022;-72
2023/06/19 01:26:07;;;;;;;18.40;10.43;;;19.80;99.90;;;;;;4997740;28;20490;-72
2023/06/19 01:28:34;;;;;;;17.13;9.80;;;19.70;99.90;;;;;;4997739;28;20030;-72
2023/06/19 01:31:01;;;;;;;17.70;10.40;;;19.70;99.90;;;;;;4997782;28;20029;-71
2023/06/19 01:33:30;;;;;;;16.83;9.20;;;19.70;99.90;;;;;;4980167;28;20023;-71
2023/06/19 01:35:57;;;;;;;17.25;9.70;;;19.70;99.90;;;;;;4980132;28;20038;-71
2023/06/19 01:38:26;;;;;;;13.45;10.35;;;19.60;99.90;;;;;;4997609;28;20033;-71
2023/06/19 01:40:56;;;;;;;15.52;9.70;;;19.60;99.90;;;;;;4997391;28;20092;-71
2023/06/19 01:43:23;;;;;;;13.15;8.65;;;19.60;99.90;;;;;;4986936;28;20061;-70
2023/06/19 01:45:49;;;;;;;16.45;9.60;;;19.60;99.90;;;;;;4997429;28;20034;-71
2023/06/19 01:48:14;;;;;;;16.52;9.48;;;19.50;99.90;;;;;;4997761;28;20034;-71
2023/06/19 01:50:45;;;;;;;16.05;9.15;;;19.50;99.90;;;;;;4997255;28;20025;-71
2023/06/19 01:53:10;;;;;;;14.35;8.45;;;19.40;99.90;;;;;;4997877;28;20545;-70
2023/06/19 01:55:37;;;;;;;12.77;9.27;;;19.40;99.90;;;;;;4996900;28;20584;-71
2023/06/19 01:58:03;;;;;;;14.70;8.00;;;19.30;99.90;;;;;;4980498;28;20080;-70
2023/06/19 02:00:30;;;;;;;14.57;8.77;;;19.30;99.90;;;;;;4997184;28;20062;-71
2023/06/19 02:02:56;;;;;;;15.15;10.45;;;19.30;99.90;;;;;;4997485;28;20018;-70
2023/06/19 02:05:21;;;;;;;14.60;9.55;;;19.30;99.90;;;;;;4997322;28;20046;-70
2023/06/19 02:07:47;;;;;;;12.82;8.23;;;19.30;99.90;;;;;;4986408;28;20491;-70
2023/06/19 02:10:13;;;;;;;14.73;9.15;;;19.30;99.90;;;;;;4996855;28;20037;-70
2023/06/19 02:12:39;;;;;;;19.10;8.43;;;19.20;99.90;;;;;;4997650;28;20050;-69
2023/06/19 02:15:06;;;;;;;21.30;10.13;;;19.20;99.90;;;;;;4996989;28;20507;-70
2023/06/19 02:17:31;;;;;;;14.68;8.35;;;19.20;99.90;;;;;;4981054;28;20098;-70
2023/06/19 02:19:57;;;;;;;17.45;9.50;;;19.10;99.90;;;;;;4997257;28;20518;-69
2023/06/19 02:22:23;;;;;;;16.52;9.75;;;19.10;99.90;;;;;;4979790;28;20033;-69
2023/06/19 02:24:49;;;;;;;11.30;8.57;;;19.10;99.90;;;;;;4996968;28;20418;-69
2023/06/19 02:27:16;;;;;;;12.02;9.60;;;19.00;99.90;;;;;;4997240;28;20022;-70
2023/06/19 02:29:42;;;;;;;13.32;8.68;;;19.00;99.90;;;;;;4996977;28;20022;-70
2023/06/19 02:32:07;;;;;;;17.45;10.57;;;19.00;99.90;;;;;;4997987;28;20079;-70
2023/06/19 02:34:33;;;;;;;15.07;9.30;;;19.00;99.90;;;;;;5000820;28;20394;-70
2023/06/19 02:36:59;;;;;;;14.35;9.65;;;18.90;99.90;;;;;;5001070;28;20085;-70
2023/06/19 02:39:25;;;;;;;17.85;9.20;;;18.90;99.90;;;;;;5000521;28;20475;-69
2023/06/19 02:41:50;;;;;;;20.05;9.77;;;18.90;99.90;;;;;;5000810;28;20058;-69
2023/06/19 02:44:16;;;;;;;15.32;9.57;;;18.80;99.90;;;;;;5000830;28;20033;-70
2023/06/19 02:46:42;;;;;;;19.08;9.75;;;18.80;99.90;;;;;;5000988;28;20019;-70
2023/06/19 02:49:07;;;;;;;14.38;10.73;;;18.80;99.90;;;;;;5000696;28;20027;-69
2023/06/19 02:51:33;;;;;;;16.75;9.63;;;18.80;99.90;;;;;;5000719;28;20022;-70
2023/06/19 02:53:58;;;;;;;11.27;9.25;;;18.80;99.90;;;;;;5000203;28;20030;-70
2023/06/19 02:56:25;;;;;;;13.73;9.70;;;18.80;99.90;;;;;;5000617;28;20030;-70
2023/06/19 02:58:52;;;;;;;14.30;9.63;;;18.70;99.90;;;;;;5000412;28;20066;-70
2023/06/19 03:01:17;;;;;;;14.05;9.57;;;18.80;99.90;;;;;;4989627;28;20058;-70
2023/06/19 03:03:46;;;;;;;19.08;11.18;;;18.70;99.90;;;;;;4984516;28;20045;-70
2023/06/19 03:06:13;;;;;;;13.82;10.00;;;18.70;99.90;;;;;;4994350;28;20538;-70
2023/06/19 03:08:39;;;;;;;12.60;9.93;;;18.70;99.90;;;;;;5019382;28;20038;-70
2023/06/19 03:11:05;;;;;;;11.75;8.75;;;18.60;99.90;;;;;;5019859;28;20390;-69
2023/06/19 03:13:52;;;;;;;17.38;9.52;;;18.50;99.90;;;;;;5021929;28;20486;-70
2023/06/19 03:16:18;;;;;;;14.38;9.85;;;18.50;99.90;;;;;;5019985;28;20084;-70
2023/06/19 03:18:44;;;;;;;14.45;9.98;;;18.50;99.90;;;;;;5019723;28;20033;-70
2023/06/19 03:21:14;;;;;;;14.80;10.57;;;18.50;99.90;;;;;;5019855;28;20030;-70
2023/06/19 03:23:42;;;;;;;13.32;9.88;;;18.40;99.90;;;;;;5019159;28;20386;-70
2023/06/19 03:26:10;;;;;;;15.18;9.45;;;18.40;99.90;;;;;;5019778;28;20114;-70
2023/06/19 03:28:36;;;;;;;15.00;10.73;;;18.40;99.90;;;;;;5019527;28;20018;-70
2023/06/19 03:31:01;;;;;;;12.60;10.15;;;18.30;99.90;;;;;;5019737;28;20061;-70
2023/06/19 03:33:27;;;;;;;12.55;10.25;;;18.30;99.90;;;;;;5019260;28;20045;-70
2023/06/19 03:35:53;;;;;;;19.45;11.63;;;18.30;99.90;;;;;;5002130;28;20030;-70
2023/06/19 03:38:19;;;;;;;17.05;11.35;;;18.30;99.90;;;;;;5001317;28;20026;-70
2023/06/19 03:40:44;;;;;;;12.45;11.00;;;18.30;99.90;;;;;;5019243;28;20846;-70
2023/06/19 03:43:11;;;;;;;14.82;10.75;;;18.30;99.90;;;;;;5018504;28;20021;-70
2023/06/19 03:45:36;;;;;;;15.18;11.55;;;18.20;99.90;;;;;;5018729;28;20026;-70
2023/06/19 03:48:02;;;;;;;18.33;11.25;;;18.20;99.90;;;;;;5018837;28;20474;-70
2023/06/19 03:50:28;;;;;;;14.32;11.68;;;18.30;99.90;;;;;;5001401;28;20397;-70
2023/06/19 03:52:54;;;;;;;23.95;11.52;;;18.30;99.90;;;;;;5018970;28;20026;-69
2023/06/19 03:55:19;;;;;;;14.50;10.77;;;18.30;99.90;;;;;;5018865;28;20038;-70
2023/06/19 03:57:45;;;;;;;18.10;11.75;;;18.30;99.90;;;;;;5018763;28;20033;-70
2023/06/19 04:00:12;;;;;;;15.27;12.07;;;18.30;99.90;;;;;;5019074;28;20064;-70
2023/06/19 04:02:39;;;;;;;15.88;11.43;;;18.30;99.90;;;;;;5018437;28;20025;-70
2023/06/19 04:05:05;;;;;;;16.33;11.18;;;18.40;99.90;;;;;;4997959;28;20045;-70
2023/06/19 04:07:31;;;;;;;23.15;11.23;;;18.40;99.90;;;;;;4993629;28;20076;-70
2023/06/19 04:09:58;;;;;;;20.90;14.43;;;18.40;99.90;;;;;;4999006;28;20022;-70
2023/06/19 04:12:23;;;;;;;19.60;15.32;;;18.40;99.90;;;;;;4998659;28;20506;-70
2023/06/19 04:14:49;;;;;;;15.40;10.98;;;18.40;99.90;;;;;;5001454;28;20439;-70
2023/06/19 04:17:15;;;;;;;22.55;12.75;;;18.40;99.90;;;;;;4993392;28;20033;-70
2023/06/19 04:19:41;;;;;;;15.23;10.23;;;18.50;99.90;;;;;;4999010;28;20113;-70
2023/06/19 04:22:07;;;;;;;16.75;11.80;;;18.50;99.90;;;;;;4998749;28;20102;-70
2023/06/19 04:24:33;;;;;;;21.23;11.82;;;18.50;99.90;;;;;;4998670;28;20448;-70
2023/06/19 04:26:58;;;;;;;16.05;11.05;;;18.60;99.90;;;;;;4991818;28;20456;-70
2023/06/19 04:29:24;;;;;;;21.35;11.95;;;18.60;99.90;;;;;;4998916;28;20491;-70
2023/06/19 04:31:49;;;;;;;22.92;12.13;;;18.60;99.90;;;;;;4998666;28;20030;-70
2023/06/19 04:34:17;;;;;;;19.77;11.50;;;18.60;99.90;;;;;;4998702;28;20387;-70
2023/06/19 04:36:43;;;;;;;16.98;10.98;;;18.60;99.90;;;;;;4987324;28;20094;-70
2023/06/19 04:39:09;;;;;;;14.98;11.63;;;18.60;99.90;;;;;;4992649;28;20027;-70
2023/06/19 04:41:38;;;;;;;19.02;12.02;;;18.70;99.90;;;;;;4998426;28;20026;-70
2023/06/19 04:44:07;;;;;;;15.05;11.80;;;18.70;99.90;;;;;;4997103;28;20061;-70
2023/06/19 04:46:33;;;;;;;16.80;11.43;;;18.70;99.90;;;;;;4998567;28;20073;-69
2023/06/19 04:48:59;;;;;;;16.45;10.50;;;18.80;99.90;;;;;;4998362;28;20022;-70
2023/06/19 04:51:26;;;;;;;13.00;11.23;;;18.80;99.90;;;;;;4998458;28;20475;-70
2023/06/19 04:53:51;;;;;;;23.20;12.13;;;18.90;99.90;;;;;;4998020;28;20035;-70
2023/06/19 04:56:17;;;;;;;15.35;11.60;;;19.00;99.90;;;;;;4998050;28;20033;-70
2023/06/19 04:58:47;;;;;;;16.48;10.93;;;19.00;99.90;;;;;;4997803;28;20088;-70
2023/06/19 05:01:13;;;;;;;16.65;11.10;;;19.20;99.90;;;;;;4980783;28;20459;-70
2023/06/19 05:03:40;;;;;;;16.67;10.45;;;19.20;99.90;;;;;;4999409;28;20097;-70
2023/06/19 05:06:06;;;;;;;16.08;10.02;;;19.20;99.90;;;;;;5000484;28;20127;-70
2023/06/19 05:08:32;;;;;;;15.23;9.68;;;19.30;99.90;;;;;;4984840;28;20030;-71
2023/06/19 05:10:57;;;;;;;11.25;10.05;;;19.20;99.90;;;;;;4997827;28;20018;-70
2023/06/19 05:13:24;;;;;;;12.13;9.35;;;19.20;99.90;;;;;;4981905;28;20556;-71
2023/06/19 05:15:52;;;;;;;12.90;9.30;;;19.30;99.90;;;;;;5000584;28;20486;-71
2023/06/19 05:18:18;;;;;;;17.70;10.43;;;19.30;99.90;;;;;;4997707;28;20029;-70
2023/06/19 05:20:44;;;;;;;14.10;9.63;;;19.30;99.90;;;;;;4997985;28;20027;-71
2023/06/19 05:23:10;;;;;;;14.32;9.45;;;19.30;99.90;;;;;;4997182;28;20117;-69
2023/06/19 05:25:36;;;;;;;11.02;8.95;;;19.30;99.90;;;;;;4997391;28;20098;-70
2023/06/19 05:28:02;;;;;;;18.42;10.25;;;19.30;99.90;;;;;;4991100;28;20023;-70
2023/06/19 05:30:27;;;;;;;11.50;9.82;;;19.30;99.90;;;;;;5004494;28;20041;-69
2023/06/19 05:32:53;;;;;;;13.18;9.95;;;19.40;99.90;;;;;;4996557;28;20049;-70
2023/06/19 05:35:19;;;;;;;13.05;9.30;;;19.50;99.90;;;;;;4997236;28;20033;-70
2023/06/19 05:37:45;;;;;;;13.25;9.88;;;19.60;99.90;;;;;;4997354;28;20029;-70
2023/06/19 05:40:11;;;;;;;11.82;9.63;;;19.70;99.90;;;;;;4997120;28;20026;-70
2023/06/19 05:42:37;;;;;;;13.77;9.60;;;19.90;99.90;;;;;;4997281;28;20116;-70
2023/06/19 05:45:06;;;;;;;12.20;10.20;;;20.10;99.90;;;;;;4997604;28;20042;-70
2023/06/19 05:47:31;;;;;;;15.02;8.43;;;20.30;99.90;;;;;;4997386;28;20018;-70
2023/06/19 05:49:57;;;;;;;15.13;8.48;;;20.50;99.90;;;;;;4997378;28;20033;-70
2023/06/19 05:52:23;;;;;;;12.73;8.90;;;20.60;99.90;;;;;;4979086;28;20125;-70
2023/06/19 05:54:49;;;;;;;14.00;9.60;;;20.70;99.90;;;;;;4997404;28;20403;-70
2023/06/19 05:57:16;;;;;;;13.10;8.32;;;20.60;99.90;;;;;;4979807;28;20519;-69
2023/06/19 05:59:42;;;;;;;17.75;10.80;;;20.60;99.90;;;;;;4997312;28;20073;-70
2023/06/19 06:02:08;;;;;;;10.45;8.07;;;20.60;99.90;;;;;;4997128;28;20169;-69
2023/06/19 06:04:34;;;;;;;12.18;8.15;;;20.60;99.90;;;;;;4992113;28;20062;-69
2023/06/19 06:07:00;;;;;;;11.02;8.73;;;20.50;99.90;;;;;;4998396;28;20042;-69
2023/06/19 06:09:27;;;;;;;11.43;7.97;;;20.50;99.90;;;;;;5003008;28;20108;-69
2023/06/19 06:11:52;;;;;;;11.15;8.43;;;20.50;99.90;;;;;;5029006;28;20049;-69
2023/06/19 06:14:18;;;;;;;11.18;8.35;;;20.50;99.90;;;;;;5001965;28;20430;-69
2023/06/19 06:16:44;;;;;;;12.55;8.25;;;20.40;99.90;;;;;;5019688;28;20092;-70
2023/06/19 06:19:10;;;;;;;12.48;8.52;;;20.40;99.90;;;;;;5020653;28;20025;-69
2023/06/19 06:21:36;;;;;;;11.73;8.50;;;20.40;99.90;;;;;;5020165;28;20024;-69
2023/06/19 06:24:02;;;;;;;11.20;8.38;;;20.40;99.90;;;;;;5019375;28;20030;-70
2023/06/19 06:26:28;;;;;;;13.13;8.35;;;20.40;99.90;;;;;;5002354;28;20578;-69
2023/06/19 06:28:54;;;;;;;10.07;8.63;;;20.40;99.90;;;;;;5002254;28;20049;-69
2023/06/19 06:31:19;;;;;;;11.00;8.23;;;20.40;99.90;;;;;;5020012;28;20112;-69
2023/06/19 06:33:45;;;;;;;15.40;9.07;;;20.50;99.90;;;;;;5001697;28;20054;-70
2023/06/19 06:36:11;;;;;;;13.95;9.38;;;20.50;99.90;;;;;;5002229;28;20030;-70
2023/06/19 06:38:37;;;;;;;11.75;9.00;;;20.60;99.90;;;;;;5002201;28;20101;-70
2023/06/19 06:41:03;;;;;;;11.50;8.70;;;20.60;99.90;;;;;;5019844;28;20030;-70
2023/06/19 06:43:28;;;;;;;11.57;8.25;;;20.70;99.90;;;;;;5019602;28;20022;-69
2023/06/19 06:45:54;;;;;;;11.23;8.63;;;20.60;99.90;;;;;;5001348;28;20030;-69
2023/06/19 06:48:20;;;;;;;16.95;9.85;;;20.70;99.90;;;;;;5020186;28;20029;-69
2023/06/19 06:50:46;;;;;;;13.88;8.57;;;20.70;99.90;;;;;;5019802;28;20025;-69
2023/06/19 06:53:12;;;;;;;14.20;9.20;;;20.70;99.90;;;;;;5019520;28;20024;-69
2023/06/19 06:55:37;;;;;;;13.18;9.35;;;20.70;99.90;;;;;;5018638;28;20103;-70
2023/06/19 06:58:03;;;;;;;13.65;9.82;;;20.70;99.90;;;;;;5019749;28;20163;-69
2023/06/19 07:00:29;;;;;;;12.48;8.77;;;20.60;99.90;;;;;;5019355;28;20430;-69
2023/06/19 07:02:54;;;;;;;12.18;8.70;;;20.60;99.90;;;;;;5019526;28;20082;-70
2023/06/19 07:05:20;;;;;;;16.70;8.80;;;20.60;99.90;;;;;;5012873;28;20046;-69
2023/06/19 07:07:46;;;;;;;9.52;8.50;;;20.60;99.90;;;;;;4999843;28;20089;-70
2023/06/19 07:10:12;;;;;;;11.77;8.57;;;20.60;99.90;;;;;;4999262;28;20479;-69
2023/06/19 07:12:48;;;;;;;11.45;9.00;;;20.60;99.90;;;;;;4999382;28;20026;-70
2023/06/19 07:15:14;;;;;;;11.32;8.77;;;20.60;99.90;;;;;;4995951;28;20026;-69
2023/06/19 07:17:39;;;;;;;13.75;8.65;;;20.60;99.90;;;;;;4999461;28;20058;-70
2023/06/19 07:20:06;;;;;;;12.38;8.90;;;20.50;99.90;;;;;;4999259;28;20022;-71
2023/06/19 07:22:32;;;;;;;11.45;9.00;;;20.60;99.90;;;;;;4981859;28;20029;-71
2023/06/19 07:24:58;;;;;;;11.90;9.05;;;20.50;99.90;;;;;;4980417;28;20026;-71
2023/06/19 07:27:27;;;;;;;11.65;9.23;;;20.60;99.90;;;;;;4999417;28;20018;-71
2023/06/19 07:29:53;;;;;;;18.65;10.18;;;20.50;99.90;;;;;;4981670;28;20030;-71
2023/06/19 07:32:19;;;;;;;13.45;9.05;;;20.60;99.90;;;;;;4999309;28;20029;-71
2023/06/19 07:34:45;;;;;;;12.98;10.35;;;20.60;99.90;;;;;;5002856;28;20037;-71
2023/06/19 07:37:17;;;;;;;15.82;10.13;;;20.60;99.90;;;;;;4993965;28;20089;-71
2023/06/19 07:39:49;;;;;;;14.38;9.80;;;20.60;99.90;;;;;;4997414;28;20057;-71
2023/06/19 07:42:16;;;;;;;14.30;10.20;;;20.70;99.90;;;;;;4991843;28;20030;-71
2023/06/19 07:44:42;;;;;;;13.80;10.13;;;20.80;99.90;;;;;;4989704;28;20033;-71
2023/06/19 07:47:08;;;;;;;13.60;9.75;;;20.90;99.90;;;;;;4992534;28;20025;-71
2023/06/19 07:49:34;;;;;;;15.00;10.05;;;21.00;99.90;;;;;;4999040;28;20026;-71
2023/06/19 07:52:00;;;;;;;12.73;10.32;;;21.20;99.90;;;;;;4993516;28;20026;-71
2023/06/19 07:54:26;;;;;;;11.15;8.80;;;21.30;99.90;;;;;;4980409;28;20034;-72
2023/06/19 07:56:52;;;;;;;15.68;9.45;;;21.50;99.90;;;;;;4998703;28;20500;-71
2023/06/19 07:59:18;;;;;;;12.65;9.85;;;21.60;99.90;;;;;;4998936;28;20104;-72
2023/06/19 08:01:44;;;;;;;12.57;10.18;;;21.70;99.90;;;;;;4998912;28;20026;-71
2023/06/19 08:04:09;;;;;;;12.32;10.15;;;21.90;99.90;;;;;;4997678;28;20026;-71
2023/06/19 08:06:35;;;;;;;15.70;10.13;;;22.00;99.90;;;;;;4998452;28;20109;-72
2023/06/19 08:09:02;;;;;;;11.23;9.05;;;22.20;99.90;;;;;;4998332;28;20081;-72
2023/06/19 08:11:27;;;;;;;16.10;10.27;;;22.30;99.90;;;;;;4981161;28;20026;-71
2023/06/19 08:13:53;;;;;;;14.00;9.27;;;22.30;99.90;;;;;;4990068;28;20031;-71
2023/06/19 08:16:19;;;;;;;12.02;8.50;;;22.10;99.90;;;;;;4998755;28;20026;-71
2023/06/19 08:18:45;;;;;;;13.88;9.25;;;22.20;99.90;;;;;;4998155;28;20534;-72
2023/06/19 08:21:11;;;;;;;13.18;9.57;;;22.30;99.90;;;;;;4980992;28;20053;-71
2023/06/19 08:23:37;;;;;;;11.98;8.98;;;22.40;99.90;;;;;;4997795;28;20033;-71
2023/06/19 08:26:03;;;;;;;14.15;8.60;;;22.60;99.90;;;;;;4997934;28;20018;-71
2023/06/19 08:28:31;;;;;;;13.18;7.95;;;22.90;99.90;;;;;;4998575;28;20027;-72
2023/06/19 08:30:57;;;;;;;11.07;7.97;;;23.20;99.90;;;;;;4997603;28;20034;-72
2023/06/19 08:33:22;;;;;;;13.13;8.27;;;23.30;99.90;;;;;;4998527;28;20037;-71
2023/06/19 08:35:48;;;;;;;13.25;8.32;;;23.40;99.90;;;;;;4997302;28;20077;-72
2023/06/19 08:38:14;;;;;;;13.80;8.82;;;23.50;99.90;;;;;;4998102;28;20030;-72
2023/06/19 08:40:42;;;;;;;12.75;8.48;;;23.40;99.90;;;;;;4997943;28;20026;-71
2023/06/19 08:43:08;;;;;;;12.98;8.88;;;23.30;99.90;;;;;;4980601;28;20037;-72
2023/06/19 08:45:33;;;;;;;13.02;8.50;;;23.30;99.90;;;;;;4979605;28;20461;-72
2023/06/19 08:48:03;;;;;;;10.82;8.50;;;23.30;99.90;;;;;;4997612;28;20391;-71
2023/06/19 08:50:32;;;;;;;10.68;8.43;;;23.30;99.90;;;;;;4997909;28;20026;-72
2023/06/19 08:52:58;;;;;;;16.63;8.00;;;23.40;99.90;;;;;;4997672;28;20065;-71
2023/06/19 08:55:24;;;;;;;12.00;9.18;;;23.50;99.90;;;;;;4995810;28;20030;-71
2023/06/19 08:57:51;;;;;;;11.88;8.40;;;23.50;99.90;;;;;;4996993;28;20022;-72
2023/06/19 09:00:28;;;;;;;10.07;8.52;;;23.50;99.90;;;;;;4979939;28;20518;-71
2023/06/19 09:03:01;;;;;;;10.05;7.65;;;23.80;99.90;;;;;;4997812;28;20057;-71
2023/06/19 09:05:27;;;;;;;11.63;7.28;;;23.70;99.90;;;;;;4975464;28;20070;-71
2023/06/19 09:07:58;;;;;;;12.25;7.78;;;23.50;99.90;;;;;;4999518;28;20025;-71
2023/06/19 09:10:24;;;;;;;15.85;8.43;;;23.40;99.90;;;;;;5013144;28;20022;-71
2023/06/19 09:13:01;;;;;;;10.40;8.68;;;23.20;99.90;;;;;;5002532;28;20029;-71
2023/06/19 09:15:29;;;;;;;13.07;8.90;;;23.00;99.90;;;;;;5013232;28;20030;-71
2023/06/19 09:18:09;;;;;;;14.75;10.30;;;23.00;99.90;;;;;;5017301;28;20065;-71
2023/06/19 09:20:43;;;;;;;10.73;7.95;;;23.00;99.90;;;;;;5017068;28;20478;-70
2023/06/19 09:23:11;;;;;;;13.25;9.02;;;23.10;99.90;;;;;;5016534;28;20038;-71
2023/06/19 09:25:45;;;;;;;10.85;7.72;;;23.30;99.90;;;;;;5014867;28;20053;-72
2023/06/19 09:28:21;;;;;;;12.75;8.02;;;23.20;99.90;;;;;;5018981;28;20032;-71
2023/06/19 09:31:00;;;;;;;12.18;7.95;;;23.00;99.90;;;;;;5015764;28;20141;-73
2023/06/19 09:33:31;;;;;;;8.93;8.00;;;23.10;99.90;;;;;;4998352;28;20406;-71
2023/06/19 09:35:58;;;;;;;12.55;7.95;;;23.20;99.90;;;;;;5017574;28;20030;-71
2023/06/19 09:38:26;;;;;;;13.45;8.27;;;23.30;99.90;;;;;;5017682;28;20030;-73
2023/06/19 09:40:53;;;;;;;11.27;8.20;;;23.30;99.90;;;;;;5002168;28;20067;-70
2023/06/19 09:43:24;;;;;;;10.65;8.65;;;23.20;99.90;;;;;;5019827;28;20037;-71
2023/06/19 09:45:50;;;;;;;14.32;9.02;;;23.30;99.90;;;;;;5004896;28;20029;-70
2023/06/19 09:48:22;;;;;;;12.18;9.00;;;23.40;99.90;;;;;;5019270;28;20017;-70
2023/06/19 09:50:53;;;;;;;12.07;8.02;;;23.40;99.90;;;;;;5018151;28;20025;-71
2023/06/19 09:53:20;;;;;;;15.25;8.25;;;23.40;99.90;;;;;;5011800;28;20510;-72
2023/06/19 09:55:50;;;;;;;10.65;7.63;;;23.70;99.90;;;;;;5017565;28;20033;-70
2023/06/19 09:58:19;;;;;;;9.68;8.35;;;23.70;99.90;;;;;;5016082;28;20069;-70
2023/06/19 10:00:47;;;;;;;13.18;8.70;;;23.70;99.90;;;;;;4987864;28;20117;-71
2023/06/19 10:03:13;;;;;;;10.57;7.88;;;23.70;99.90;;;;;;5018853;28;20030;-70
2023/06/19 10:05:40;;;;;;;12.95;8.93;;;23.80;99.90;;;;;;5005829;28;20038;-70
2023/06/19 10:08:06;;;;;;;12.75;8.20;;;23.80;99.90;;;;;;4995997;28;20161;-71
2023/06/19 10:10:34;;;;;;;10.70;7.97;;;23.70;99.90;;;;;;4978723;28;20025;-70
2023/06/19 10:13:11;;;;;;;9.88;8.48;;;23.60;99.90;;;;;;4979341;28;20030;-70
2023/06/19 10:15:42;;;;;;;10.18;7.25;;;23.60;99.90;;;;;;4994970;28;20113;-71
2023/06/19 10:18:12;;;;;;;8.48;7.45;;;23.70;99.90;;;;;;4979465;28;20411;-70
2023/06/19 10:20:39;;;;;;;10.32;7.75;;;23.80;99.90;;;;;;4995936;28;20450;-70
2023/06/19 10:23:20;;;;;;;10.38;6.72;;;24.00;99.90;;;;;;4981631;28;20031;-70
2023/06/19 10:25:47;;;;;;;20.63;8.32;;;24.20;99.90;;;;;;4975832;28;20106;-70
2023/06/19 10:28:27;;;;;;;8.00;6.70;;;24.40;99.90;;;;;;4999508;28;20045;-72
2023/06/19 10:30:56;;;;;;;10.88;6.60;;;24.70;99.90;;;;;;4993912;28;20018;-70
2023/06/19 10:33:24;;;;;;;9.77;5.95;;;25.10;99.90;;;;;;4995897;28;20390;-70
2023/06/19 10:35:50;;;;;;;8.65;6.15;;;25.20;99.90;;;;;;4998792;28;20048;-70
2023/06/19 10:38:16;;;;;;;8.35;6.15;;;24.80;99.90;;;;;;4977831;28;20031;-71
2023/06/19 10:40:44;;;;;;;10.40;6.47;;;24.60;99.90;;;;;;4991963;28;20038;-70
2023/06/19 10:43:10;;;;;;;9.77;5.93;;;24.40;99.90;;;;;;4995363;28;20026;-69
2023/06/19 10:45:36;;;;;;;9.65;5.72;;;24.40;99.90;;;;;;4994896;28;20031;-70
2023/06/19 10:48:03;;;;;;;6.93;6.03;;;24.30;99.90;;;;;;4995883;28;20021;-70
2023/06/19 10:50:30;;;;;;;8.00;6.03;;;24.40;99.90;;;;;;4983374;28;20085;-70
2023/06/19 10:52:58;;;;;;;8.60;6.38;;;24.40;99.90;;;;;;4997765;28;20018;-71
2023/06/19 10:55:24;;;;;;;9.02;6.18;;;24.40;99.90;;;;;;4998481;28;20042;-70
2023/06/19 10:57:50;;;;;;;7.18;5.57;;;24.40;99.90;;;;;;4982989;28;20082;-70
2023/06/19 11:00:33;;;;;;;9.38;5.53;;;24.50;99.90;;;;;;5000037;28;20566;-70
2023/06/19 11:02:59;;;;;;;11.98;5.55;;;24.40;99.90;;;;;;4999226;28;20057;-70
2023/06/19 11:05:27;;;;;;;7.05;5.32;;;24.30;99.90;;;;;;4998092;28;20053;-70
2023/06/19 11:07:58;;;;;;;8.73;6.03;;;24.20;99.90;;;;;;5003157;28;20399;-69
2023/06/19 11:10:27;;;;;;;9.48;5.55;;;24.20;99.90;;;;;;4998866;28;20029;-70
2023/06/19 11:12:57;;;;;;;8.85;6.10;;;24.20;99.90;;;;;;4998686;28;20045;-70
2023/06/19 11:15:29;;;;;;;;;;;24.00;99.90;;;;;;4998967;28;20034;-70
2023/06/19 11:17:56;;;;;;;9.95;5.75;;;24.00;99.90;;;;;;5001172;28;20441;-70
2023/06/19 11:20:21;;;;;;;8.38;5.38;;;24.00;99.90;;;;;;5000419;28;20037;-71
2023/06/19 11:22:48;;;;;;;8.02;5.80;;;24.00;99.90;;;;;;5002284;28;20550;-70
2023/06/19 11:25:14;;;;;;;9.18;6.97;;;23.90;99.90;;;;;;5001664;28;20025;-70
2023/06/19 11:27:39;;;;;;;9.90;5.78;;;24.00;99.90;;;;;;4999213;28;20546;-70
2023/06/19 11:30:07;;;;;;;7.28;5.00;;;24.00;99.90;;;;;;4993246;28;20034;-70
2023/06/19 11:32:44;;;;;;;7.00;5.40;;;24.20;99.90;;;;;;4998910;28;20030;-70
2023/06/19 11:35:12;;;;;;;6.93;5.10;;;24.20;99.90;;;;;;5002292;28;20081;-69
2023/06/19 11:37:41;;;;;;;7.20;4.82;;;24.30;99.90;;;;;;4998430;28;20026;-70
2023/06/19 11:40:11;;;;;;;8.00;5.70;;;24.30;99.90;;;;;;4998086;28;20030;-70
2023/06/19 11:42:48;;;;;;;7.88;5.13;;;24.10;99.90;;;;;;5002850;28;20039;-70
2023/06/19 11:45:14;;;;;;;12.82;6.53;;;24.10;99.90;;;;;;4993986;28;20030;-70
2023/06/19 11:47:39;;;;;;;7.30;5.05;;;23.90;99.90;;;;;;4998921;28;20026;-70
2023/06/19 11:50:06;;;;;;;8.65;5.60;;;23.90;99.90;;;;;;5001740;28;20694;-70
2023/06/19 11:52:32;;;;;;;9.80;6.28;;;23.90;99.90;;;;;;5002531;28;20018;-70
2023/06/19 11:54:57;;;;;;;9.77;6.45;;;23.80;99.90;;;;;;4974789;28;20169;-70
2023/06/19 11:57:23;;;;;;;10.55;6.60;;;23.60;99.90;;;;;;4998533;28;20041;-70
2023/06/19 11:59:49;;;;;;;13.50;7.60;;;23.60;99.90;;;;;;4999998;28;20486;-69
2023/06/19 12:02:14;;;;;;;7.93;6.68;;;23.60;99.90;;;;;;4997923;28;20062;-70
2023/06/19 12:04:40;;;;;;;11.00;6.57;;;23.50;99.90;;;;;;4995900;28;20054;-70
2023/06/19 12:07:06;;;;;;;10.73;6.90;;;23.50;99.90;;;;;;4997507;28;20114;-70
2023/06/19 12:09:31;;;;;;;8.65;6.57;;;23.40;99.90;;;;;;4987574;28;20022;-70
2023/06/19 12:11:59;;;;;;;8.52;5.78;;;23.50;99.90;;;;;;4997605;28;20077;-70
2023/06/19 12:14:26;;;;;;;9.48;6.78;;;23.50;99.90;;;;;;4997458;28;20033;-69
2023/06/19 12:16:52;;;;;;;9.65;6.25;;;23.40;99.90;;;;;;5000872;28;20490;-70
2023/06/19 12:19:18;;;;;;;12.07;7.43;;;23.40;99.90;;;;;;4980349;28;20031;-69
2023/06/19 12:21:43;;;;;;;10.45;7.03;;;23.40;99.90;;;;;;4998384;28;20077;-69
2023/06/19 12:24:09;;;;;;;9.25;6.90;;;23.40;99.90;;;;;;4999896;28;20402;-70
2023/06/19 12:26:38;;;;;;;11.38;7.10;;;23.30;99.90;;;;;;4979774;28;20391;-69
2023/06/19 12:29:05;;;;;;;7.47;6.68;;;23.30;99.90;;;;;;5001668;28;20077;-70
2023/06/19 12:31:31;;;;;;;11.68;6.80;;;23.20;99.90;;;;;;4997446;28;20046;-70
2023/06/19 12:33:57;;;;;;;10.65;7.18;;;23.00;99.90;;;;;;4979390;28;20030;-69
2023/06/19 12:36:23;;;;;;;9.32;6.57;;;23.00;99.90;;;;;;5000318;28;20052;-70